• Join FlightAware (Why Join?)
  • Login
  • US Flag 
12:41AM EDT


 

Airport Tracker/Info


-or-


 

Live Flight TrackerFlight Track Log ✈ AAL1459 ✈ 09-May-2013 ✈ KORD - KRNO

Flight Track Log - Related Links

Times and Time Zones

All times are in EDT time to prevent confusion due to time zone crossing. See the AAL1459 flight status page for this flight to view local times or setup timezone preferences in your user account.

Time Position Orientation Groundspeed Altitude Reporting Facility
EDT Latitude Longitude Course Direction KTS MPH feet Rate Location/Type
06:39PM 41.9667 -88.0167 270° West 225 259 3,600  Level Chicago TRACON
06:41PM 41.9667 -88.3728 270° West  Level FlightAware Approximate
06:41PM 41.9333 -88.1592 253° West 272 313 8,300  Level Chicago Center
06:42PM 41.9667 -88.5304 270° West  Level FlightAware Approximate
06:42PM 41.9867 -88.2433 310° West 300 345 11,200  Level Chicago Center
06:43PM 41.9667 -88.6881 270° West  Level FlightAware Approximate
06:43PM 42.0311 -88.3678 296° West 312 359 13,900  Level Chicago Center
06:44PM 41.9668 -88.8457 270° West  Level FlightAware Approximate
06:44PM 42.0661 -88.4864 292° West 337 388 16,300  Level Chicago Center
06:45PM 42.0856 -88.6164 281° West 359 413 18,800 2,220 Climbing Chicago Center
06:46PM 42.0867 -88.7497 271° West 361 415 21,000 2,220 Climbing Chicago Center
06:47PM 42.0881 -88.8931 271° West 361 415 23,400 2,100 Climbing Chicago Center
06:48PM 42.0925 -89.0317 273° West 367 422 25,400 1,800 Climbing Chicago Center
06:49PM 42.0978 -89.1947 273° West 372 428 27,200 1,500 Climbing Chicago Center
06:50PM 42.1017 -89.3414 272° West 386 444 28,600 1,500 Climbing Chicago Center
06:51PM 42.1203 -89.4858 280° West 396 456 30,300 1,500 Climbing Chicago Center
06:52PM 42.1567 -89.6272 289° West 401 461 31,800 1,260 Climbing Chicago Center
06:53PM 42.1931 -89.7689 289° West 400 460 33,000 1,260 Climbing Chicago Center
06:54PM 42.2342 -89.9297 289° West 399 459 34,500 1,260 Climbing Chicago Center
06:55PM 42.2689 -90.0672 289° West 394 453 35,700 900 Climbing Chicago Center
06:56PM 42.2781 -90.2106 275° West 385 443 36,400 360 Climbing Chicago Center
06:57PM 42.2831 -90.3581 273° West 394 453 36,500 240 Climbing Chicago Center
06:58PM 42.2914 -90.5108 274° West 407 468 36,900 540 Climbing Chicago Center
06:59PM 42.2997 -90.6981 274° West 418 481 37,700 480 Climbing Chicago Center
07:01PM 42.3058 -90.8525 273° West 416 479 38,000 120 Climbing Chicago Center
07:02PM 42.3125 -91.0089 273° West 419 482 38,000  Level Chicago Center
07:03PM 42.3194 -91.1653 273° West 420 483 38,000  Level Chicago Center
07:04PM 42.3256 -91.3211 273° West 417 480 38,000  Level Chicago Center
07:05PM 42.3303 -91.4783 272° West 419 482 38,000  Level Chicago Center
07:06PM 42.3383 -91.6708 273° West 425 489 38,000  Level Chicago Center
07:07PM 42.3436 -91.8303 273° West 424 488 38,000  Level Chicago Center
07:08PM 42.3492 -91.9889 273° West 423 487 38,000  Level Chicago Center
07:09PM 42.3547 -92.1489 273° West 426 490 38,000  Level Chicago Center
07:09PM 42.3572 -92.2150 273° West 429 494 38,000  Level Minneapolis Center
07:10PM 42.3617 -92.3739 272° West 427 491 38,000  Level Minneapolis Center
07:11PM 42.3661 -92.5342 272° West 429 494 38,000  Level Minneapolis Center
07:12PM 42.3711 -92.6950 272° West 430 495 38,000  Level Minneapolis Center
07:13PM 42.3756 -92.8556 272° West 430 495 38,000  Level Minneapolis Center
07:14PM 42.3803 -93.0481 272° West 431 496 38,000  Level Minneapolis Center
07:15PM 42.3844 -93.2119 272° West 437 503 38,000  Level Minneapolis Center
07:16PM 42.3886 -93.3728 272° West 435 501 38,000  Level Minneapolis Center
07:17PM 42.3922 -93.5331 272° West 433 498 38,000  Level Minneapolis Center
07:18PM 42.3956 -93.6978 272° West 439 505 38,000  Level Minneapolis Center
07:19PM 42.3978 -93.8900 271° West 433 498 38,000  Level Minneapolis Center
07:20PM 42.3997 -94.0522 271° West 434 499 38,000  Level Minneapolis Center
07:21PM 42.4044 -94.2147 272° West 438 504 38,000  Level Minneapolis Center
07:23PM 42.4069 -94.3892 271° West 434 499 38,000  Level Minneapolis Center
07:24PM 42.4083 -94.5533 271° West 438 504 38,000  Level Minneapolis Center
07:25PM 42.4094 -94.7164 271° West 435 501 38,000  Level Minneapolis Center
07:26PM 42.4117 -94.8786 271° West 434 499 38,000  Level Minneapolis Center
07:27PM 42.4125 -95.0742 270° West 434 499 38,000  Level Minneapolis Center
07:28PM 42.4142 -95.2381 271° West 436 502 38,000  Level Minneapolis Center
07:29PM 42.4144 -95.4014 270° West 436 502 38,000  Level Minneapolis Center
07:30PM 42.4153 -95.5644 270° West 435 501 38,000  Level Minneapolis Center
07:31PM 42.4158 -95.7247 270° West 429 494 38,000  Level Minneapolis Center
07:32PM 42.4158 -95.8878 270° West 432 497 38,000  Level Minneapolis Center
07:33PM 42.4153 -96.0847 270° West 436 502 38,000  Level Minneapolis Center
07:34PM 42.4147 -96.2472 270° West 435 501 38,000  Level Minneapolis Center
07:35PM 42.4144 -96.4097 270° West 435 501 38,000  Level Minneapolis Center
07:36PM 42.4136 -96.5717 270° West 433 498 38,000  Level Minneapolis Center
07:37PM 42.4128 -96.7331 270° West 432 497 38,000  Level Minneapolis Center
07:38PM 42.4106 -96.9253 269° West 429 494 38,000  Level Minneapolis Center
07:39PM 42.4089 -97.0864 269° West 430 495 38,000  Level Minneapolis Center
07:40PM 42.4075 -97.2475 269° West 430 495 38,000  Level Minneapolis Center
07:41PM 42.4053 -97.4072 269° West 428 493 38,000  Level Minneapolis Center
07:42PM 42.4033 -97.5675 269° West 427 491 38,000  Level Minneapolis Center
07:43PM 42.4003 -97.7278 269° West 428 493 38,000  Level Minneapolis Center
07:44PM 42.3969 -97.9108 269° West 425 489 38,000  Level Minneapolis Center
07:45PM 42.3947 -98.0719 269° West 429 494 38,000  Level Minneapolis Center
07:46PM 42.3919 -98.2317 269° West 427 491 38,000  Level Minneapolis Center
07:47PM 42.3881 -98.3922 268° West 428 493 38,000  Level Minneapolis Center
07:48PM 42.3842 -98.5861 269° West 431 496 38,000  Level Minneapolis Center
07:49PM 42.3797 -98.7453 268° West 427 491 38,000  Level Minneapolis Center
07:50PM 42.3761 -98.9056 268° West 427 491 38,000  Level Minneapolis Center
07:51PM 42.3717 -99.0647 268° West 426 490 38,000  Level Minneapolis Center
07:53PM 42.3669 -99.2214 268° West 421 484 38,000  Level Minneapolis Center
07:54PM 42.3628 -99.3789 268° West 421 484 38,000  Level Minneapolis Center
07:54PM 42.3606 -99.4436 267° West 422 486 38,000  Level Denver Center
07:55PM 42.3553 -99.5994 267° West 419 482 38,000  Level Denver Center
07:56PM 42.3494 -99.7744 267° West 425 489 38,000  Level Denver Center
07:57PM 42.3431 -99.9256 267° West 423 487 38,000  Level Denver Center
07:58PM 42.3378 -100.1025 268° West 424 488 38,000  Level Denver Center
07:59PM 42.3314 -100.2561 267° West 427 491 38,000  Level Denver Center
08:00PM 42.3244 -100.4339 267° West 425 489 38,000  Level Denver Center
08:01PM 42.3189 -100.5869 267° West 428 493 38,000  Level Denver Center
08:02PM 42.3108 -100.7656 267° West 427 491 38,000  Level Denver Center
08:03PM 42.3047 -100.9189 267° West 427 491 38,000  Level Denver Center
08:04PM 42.2969 -101.0981 267° West 429 494 38,000  Level Denver Center
08:05PM 42.2894 -101.2486 266° West 424 488 38,000  Level Denver Center
08:06PM 42.2819 -101.4256 267° West 423 487 38,000  Level Denver Center
08:07PM 42.2739 -101.5764 266° West 422 486 38,000  Level Denver Center
08:08PM 42.2653 -101.7517 266° West 422 486 38,000  Level Denver Center
08:09PM 42.2569 -101.9017 266° West 420 483 38,000  Level Denver Center
08:10PM 42.2511 -102.0269 266° West 420 483 38,000  Level Denver Center
08:11PM 42.2408 -102.2394 266° West 422 486 38,000  Level Denver Center
08:12PM 42.2297 -102.3908 264° West 424 488 38,000  Level Denver Center
08:13PM 42.2200 -102.5675 266° West 425 489 38,000  Level Denver Center
08:15PM 42.2111 -102.7192 266° West 425 489 38,000  Level Denver Center
08:16PM 42.2025 -102.8706 266° West 425 489 38,000  Level Denver Center
08:17PM 42.1914 -103.0478 265° West 425 489 38,000  Level Denver Center
08:18PM 42.1814 -103.2003 265° West 427 491 38,000  Level Denver Center
08:19PM 42.1706 -103.3778 265° West 426 490 38,000  Level Denver Center
08:20PM 42.1592 -103.5308 264° West 429 494 38,000  Level Denver Center
08:21PM 42.1478 -103.7094 265° West 429 494 38,000  Level Denver Center
08:22PM 42.1367 -103.8633 264° West 430 495 38,000  Level Denver Center
08:23PM 42.1236 -104.0439 264° West 433 498 38,000  Level Denver Center
08:24PM 42.1122 -104.1961 264° West 429 494 38,000  Level Denver Center
08:25PM 42.1036 -104.3236 265° West 428 493 38,000  Level Denver Center
08:26PM 42.0886 -104.5253 264° West 425 489 38,000  Level Denver Center
08:27PM 42.0786 -104.6500 264° West 421 484 38,000  Level Denver Center
08:28PM 42.0622 -104.8525 264° West 426 490 38,000  Level Denver Center
08:29PM 42.0503 -105.0064 264° West 430 495 38,000  Level Denver Center
08:30PM 42.0364 -105.1847 264° West 430 495 38,000  Level Denver Center
08:31PM 42.0306 -105.3339 267° West 421 484 38,000  Level Denver Center
08:32PM 42.0225 -105.5336 267° West 420 483 38,000  Level Denver Center
08:33PM 42.0153 -105.6836 266° West 421 484 38,000  Level Denver Center
08:34PM 42.0083 -105.8603 267° West 423 487 38,000  Level Denver Center
08:35PM 42.0019 -106.0117 267° West 426 490 38,000  Level Denver Center
08:36PM 41.9922 -106.1861 266° West 421 484 38,000  Level Denver Center
08:37PM 41.9861 -106.3378 267° West 425 489 38,000  Level Denver Center
08:38PM 41.9778 -106.5147 266° West 426 490 38,000  Level Denver Center
08:40PM 41.9686 -106.6772 266° West 431 496 38,000  Level Denver Center
08:41PM 41.9594 -106.8300 265° West 430 495 38,000  Level Denver Center
08:42PM 41.9500 -107.0103 266° West 433 498 38,000  Level Denver Center
08:43PM 41.9422 -107.1647 266° West 434 499 38,000  Level Denver Center
08:44PM 41.9308 -107.3450 265° West 435 501 38,000  Level Denver Center
08:45PM 41.9194 -107.5525 266° West 438 504 38,000  Level Denver Center
08:46PM 41.9078 -107.7058 264° West 434 499 38,000  Level Salt Lake Center
08:47PM 41.8994 -107.8606 266° West 435 501 38,000  Level Salt Lake Center
08:48PM 41.8881 -108.0397 265° West 435 501 38,000  Level Salt Lake Center
08:49PM 41.8778 -108.1961 265° West 440 506 38,000  Level Salt Lake Center
08:50PM 41.8656 -108.3744 265° West 433 498 38,000  Level Salt Lake Center
08:52PM 41.8453 -108.6803 265° West 432 497 38,000  Level Salt Lake Center
08:53PM 41.8325 -108.8594 265° West 435 501 38,000  Level Salt Lake Center
08:54PM 41.8214 -109.0125 264° West 435 501 38,000  Level Salt Lake Center
08:55PM 41.8092 -109.1925 265° West 438 504 38,000  Level Salt Lake Center
08:56PM 41.7964 -109.3458 264° West 438 504 38,000  Level Salt Lake Center
08:57PM 41.7822 -109.5275 264° West 440 506 38,000  Level Salt Lake Center
08:58PM 41.7706 -109.6831 264° West 441 507 38,000  Level Salt Lake Center
08:59PM 41.7558 -109.8639 264° West 442 509 38,000  Level Salt Lake Center
09:00PM 41.7431 -110.0186 264° West 438 504 38,000  Level Salt Lake Center
09:01PM 41.7281 -110.1986 264° West 438 504 38,000  Level Salt Lake Center
09:02PM 41.7150 -110.3539 264° West 440 506 38,000  Level Salt Lake Center
09:03PM 41.7019 -110.5106 264° West 442 509 38,000  Level Salt Lake Center
09:04PM 41.6850 -110.6958 263° West 448 516 38,000  Level Salt Lake Center
09:05PM 41.6711 -110.8522 263° West 445 512 38,000 300 Level Salt Lake Center
09:06PM 41.6569 -111.0111 263° West 449 517 38,700 660 Climbing Salt Lake Center
09:07PM 41.6386 -111.2061 263° West 444 511 39,400 540 Climbing Salt Lake Center
09:08PM 41.6225 -111.3697 263° West 447 514 39,900 240 Climbing Salt Lake Center
09:09PM 41.6081 -111.5339 263° West 449 517 40,000  Climbing Salt Lake Center
09:11PM 41.5914 -111.6981 262° West 449 517 40,000  Level Salt Lake Center
09:12PM 41.5756 -111.8636 263° West 454 522 40,000  Level Salt Lake Center
09:13PM 41.5586 -112.0272 262° West 451 519 40,000  Level Salt Lake Center
09:14PM 41.5389 -112.2244 262° West 451 519 40,000  Level Salt Lake Center
09:15PM 41.5225 -112.3875 262° West 448 516 40,000  Level Salt Lake Center
09:16PM 41.5050 -112.5519 262° West 451 519 40,000  Level Salt Lake Center
09:17PM 41.4892 -112.7167 263° West 451 519 40,000  Level Salt Lake Center
09:18PM 41.4708 -112.8836 262° West 456 525 40,000  Level Salt Lake Center
09:19PM 41.4511 -113.0492 261° West 455 524 40,000  Level Salt Lake Center
09:20PM 41.4331 -113.2131 262° West 451 519 40,000  Level Salt Lake Center
09:21PM 41.4114 -113.4119 262° West 453 521 40,000  Level Salt Lake Center
09:22PM 41.3914 -113.5750 261° West 449 517 40,000  Level Salt Lake Center
09:23PM 41.3728 -113.7414 262° West 454 522 40,000  Level Salt Lake Center
09:24PM 41.3472 -113.9069 258° West 458 527 40,000  Level Salt Lake Center
09:25PM 41.3072 -114.0694 252° West 462 532 40,000  Level Salt Lake Center
09:26PM 41.2681 -114.2297 252° West 460 529 40,000  Level Salt Lake Center
09:27PM 41.2289 -114.3908 252° West 460 529 40,000  Level Salt Lake Center
09:28PM 41.1911 -114.5517 253° West 458 527 40,000  Level Salt Lake Center
09:29PM 41.1436 -114.7433 252° West 457 526 40,000  Level Salt Lake Center
09:30PM 41.1047 -114.9019 252° West 457 526 40,000  Level Salt Lake Center
09:31PM 41.0683 -115.0561 253° West 458 527 40,000  Level Salt Lake Center
09:32PM 41.0214 -115.2339 251° West 458 527 40,000  Level Salt Lake Center
09:33PM 40.9836 -115.3881 252° West 458 527 40,000  Level Salt Lake Center
09:34PM 40.9436 -115.5414 251° West 460 529 40,000  Level Salt Lake Center
09:35PM 40.8981 -115.7206 251° West 460 529 40,000  Level Salt Lake Center
09:36PM 40.8611 -115.8742 252° West 459 528 40,000  Level Salt Lake Center
09:37PM 40.8147 -116.0531 251° West 460 529 40,000  Level Salt Lake Center
09:38PM 40.7742 -116.2050 251° West 461 531 40,000  Level Salt Lake Center
09:39PM 40.7347 -116.3589 251° West 462 532 40,000  Level Salt Lake Center
09:40PM 40.6881 -116.5386 251° West 464 534 40,000  Level Salt Lake Center
09:41PM 40.6475 -116.6914 251° West 464 534 40,000  Level Salt Lake Center
09:42PM 40.6000 -116.8697 251° West 466 536 40,000  Level Salt Lake Center
09:43PM 40.5586 -117.0214 250° West 467 537 40,000  Level Salt Lake Center
09:44PM 40.5106 -117.1986 250° West 467 537 40,000  Level Salt Lake Center
09:45PM 40.4689 -117.3506 250° West 466 536 40,000  Level Salt Lake Center
09:46PM 40.4114 -117.5236 246° West 470 541 40,000 -120 Level Salt Lake Center
09:47PM 40.3406 -117.6564 235° Southwest 465 535 39,800 -540 Descending Salt Lake Center
09:48PM 40.2706 -117.7897 235° Southwest 466 536 38,900 -1,020 Descending Salt Lake Center
09:49PM 40.1881 -117.9456 235° Southwest 466 536 37,800 -1,020 Descending Salt Lake Center
09:50PM 40.1158 -118.0800 235° Southwest 470 541 36,900 -900 Descending Salt Lake Center
09:52PM 40.0356 -118.2369 236° Southwest 471 542 35,900 -960 Descending Oakland Center
09:53PM 39.9619 -118.3747 235° Southwest 466 536 34,900 -1,320 Descending Oakland Center
09:54PM 39.8869 -118.5117 235° Southwest 466 536 33,300 -2,280 Descending Oakland Center
09:55PM 39.8128 -118.6472 235° Southwest 465 535 30,300 -2,940 Descending Oakland Center
09:56PM 39.7253 -118.8072 235° Southwest 457 526 27,400 -2,640 Descending Oakland Center
09:57PM 39.6539 -118.9353 234° Southwest 445 512 25,000 -2,700 Descending Oakland Center
09:58PM 39.5839 -119.0611 234° Southwest 438 504 21,900 -2,700 Descending Oakland Center
09:59PM 39.5150 -119.1861 234° Southwest 432 497 19,500 -2,700 Descending Oakland Center
10:00PM 39.4458 -119.3108 234° Southwest 431 496 16,500 -2,700 Descending Oakland Center
10:01PM 39.3764 -119.4347 234° Southwest 428 493 14,100 -2,220 Descending Oakland Center
10:02PM 39.3092 -119.5475 232° Southwest 404 465 12,000 -1,080 Descending Oakland Center
10:03PM 39.2483 -119.6317 227° Southwest 362 417 11,900 -900 Descending Oakland Center
10:04PM 39.2886 -119.7292 298° West 276 318 10,200 -1,560 Descending Oakland Center
10:05PM 39.3364 -119.7633 331° Northwest 236 272 8,800 -1,380 Descending Oakland Center